createdAt,value
2018-10-18T00:00:35.382Z,8.33
2018-10-18T00:03:04.443Z,8.37
2018-10-18T00:05:33.507Z,8.30
2018-10-18T00:08:02.664Z,8.35
2018-10-18T00:10:31.400Z,8.33
2018-10-18T00:13:00.012Z,8.30
2018-10-18T00:15:28.739Z,8.25
2018-10-18T00:17:57.560Z,8.17
2018-10-18T00:20:26.712Z,8.01
2018-10-18T00:22:55.394Z,8.22
2018-10-18T00:25:24.117Z,8.13
2018-10-18T00:27:52.806Z,8.18
2018-10-18T00:30:21.800Z,8.15
2018-10-18T00:32:50.652Z,8.08
2018-10-18T00:35:19.507Z,8.03
2018-10-18T00:37:48.399Z,8.06
2018-10-18T00:40:17.248Z,8.03
2018-10-18T00:42:45.990Z,8.04
2018-10-18T00:45:14.737Z,8.03
2018-10-18T00:47:43.499Z,8.01
2018-10-18T00:50:19.187Z,7.89
2018-10-18T00:52:47.793Z,7.88
2018-10-18T00:55:16.870Z,7.92
2018-10-18T00:57:45.827Z,7.90
2018-10-18T01:00:14.667Z,7.90
2018-10-18T01:02:46.302Z,7.88
2018-10-18T01:05:15.339Z,7.86
2018-10-18T01:07:44.252Z,7.86
2018-10-18T01:10:13.308Z,7.80
2018-10-18T01:12:42.101Z,7.74
2018-10-18T01:15:11.149Z,7.72
2018-10-18T01:17:40.767Z,7.72
2018-10-18T01:20:09.618Z,7.72
2018-10-18T01:22:38.419Z,7.73
2018-10-18T01:25:07.559Z,7.74
2018-10-18T01:27:36.411Z,7.64
2018-10-18T01:30:05.730Z,7.62
2018-10-18T01:32:34.346Z,7.79
2018-10-18T01:35:03.429Z,7.74
2018-10-18T01:37:32.062Z,7.69
2018-10-18T01:40:01.047Z,7.62
2018-10-18T01:42:29.866Z,7.74
2018-10-18T01:44:58.630Z,7.76
2018-10-18T01:47:27.745Z,7.85
2018-10-18T01:49:56.620Z,7.73
2018-10-18T01:52:25.737Z,7.64
2018-10-18T01:54:54.631Z,7.62
2018-10-18T01:57:23.535Z,7.65
2018-10-18T01:59:52.427Z,7.64
2018-10-18T02:02:21.316Z,7.68
2018-10-18T02:04:50.085Z,7.53
2018-10-18T02:07:18.807Z,7.61
2018-10-18T02:09:47.751Z,7.54
2018-10-18T02:12:16.623Z,7.51
2018-10-18T02:14:45.332Z,7.53
2018-10-18T02:17:14.344Z,7.57
2018-10-18T02:19:43.212Z,7.56
2018-10-18T02:22:12.075Z,7.49
2018-10-18T02:24:40.841Z,7.48
2018-10-18T02:27:09.584Z,7.41
2018-10-18T02:29:38.250Z,7.37
2018-10-18T02:32:07.230Z,7.33
2018-10-18T02:34:36.158Z,7.24
2018-10-18T02:37:06.327Z,7.37
2018-10-18T02:39:35.169Z,7.47
2018-10-18T02:42:04.563Z,7.37
2018-10-18T02:44:33.347Z,7.39
2018-10-18T02:47:02.159Z,7.36
2018-10-18T02:49:30.768Z,7.27
2018-10-18T02:51:59.531Z,7.31
2018-10-18T02:54:28.140Z,7.28
2018-10-18T02:56:57.270Z,7.23
2018-10-18T02:59:26.688Z,7.29
2018-10-18T03:01:55.485Z,7.25
2018-10-18T03:04:24.328Z,7.21
2018-10-18T03:06:53.094Z,7.13
2018-10-18T03:09:22.063Z,7.10
2018-10-18T03:11:50.888Z,7.18
2018-10-18T03:14:19.695Z,7.13
2018-10-18T03:16:48.540Z,7.11
2018-10-18T03:19:17.355Z,7.13
2018-10-18T03:21:46.279Z,7.12
2018-10-18T03:24:15.125Z,6.99
2018-10-18T03:26:44.514Z,7.03
2018-10-18T03:29:13.287Z,6.88
2018-10-18T03:31:41.946Z,7.00
2018-10-18T03:34:10.746Z,6.98
2018-10-18T03:36:39.650Z,7.09
2018-10-18T03:39:10.633Z,7.06
2018-10-18T03:41:39.488Z,6.98
2018-10-18T03:44:08.355Z,7.06
2018-10-18T03:46:37.196Z,6.94
2018-10-18T03:49:06.154Z,6.89
2018-10-18T03:51:35.303Z,6.94
2018-10-18T03:54:04.020Z,6.94
2018-10-18T03:56:33.068Z,6.96
2018-10-18T03:59:01.713Z,6.99
2018-10-18T04:04:25.863Z,6.83
2018-10-18T04:06:54.279Z,6.78
2018-10-18T04:09:22.762Z,7.01
2018-10-18T04:11:51.134Z,7.11
2018-10-18T04:14:19.515Z,6.91
2018-10-18T04:16:47.836Z,6.81
2018-10-18T04:19:16.359Z,6.91
2018-10-18T04:21:44.890Z,6.90
2018-10-18T04:24:13.571Z,6.92
2018-10-18T04:26:41.968Z,6.93
2018-10-18T04:29:10.269Z,6.93
2018-10-18T04:31:38.604Z,6.94
2018-10-18T04:34:06.923Z,6.84
2018-10-18T04:36:35.281Z,6.84
2018-10-18T04:39:04.406Z,6.72
2018-10-18T04:41:33.631Z,6.71
2018-10-18T04:44:01.981Z,6.80
2018-10-18T04:46:30.365Z,6.68
2018-10-18T04:48:58.751Z,6.73
2018-10-18T04:51:27.159Z,6.69
2018-10-18T04:53:55.436Z,6.85
2018-10-18T04:56:23.915Z,6.60
2018-10-18T04:58:52.350Z,6.73
2018-10-18T05:01:21.058Z,6.66
2018-10-18T05:03:49.231Z,6.74
2018-10-18T05:06:17.730Z,6.72
2018-10-18T05:08:46.036Z,6.66
2018-10-18T05:11:14.412Z,6.61
2018-10-18T05:13:42.703Z,6.67
2018-10-18T05:16:11.144Z,6.67
2018-10-18T05:18:39.447Z,6.51
2018-10-18T05:21:07.995Z,6.80
2018-10-18T05:23:36.381Z,6.62
2018-10-18T05:26:06.850Z,6.78
2018-10-18T05:28:35.460Z,6.78
2018-10-18T05:31:03.849Z,6.67
2018-10-18T05:33:32.314Z,6.69
2018-10-18T05:36:01.109Z,6.78
2018-10-18T05:38:29.451Z,6.73
2018-10-18T05:40:58.554Z,6.80
2018-10-18T05:43:26.930Z,6.74
2018-10-18T05:45:56.021Z,6.60
2018-10-18T05:48:24.447Z,6.59
2018-10-18T05:50:52.823Z,6.80
2018-10-18T05:53:21.235Z,6.95
2018-10-18T05:55:50.068Z,6.83
2018-10-18T05:58:18.381Z,6.72
2018-10-18T06:00:47.072Z,6.91
2018-10-18T06:05:52.835Z,7.00
2018-10-18T06:08:21.114Z,6.86
2018-10-18T06:11:00.719Z,6.97
2018-10-18T06:13:29.052Z,6.95
2018-10-18T06:15:57.923Z,6.92
2018-10-18T06:18:26.235Z,6.95
2018-10-18T06:20:54.769Z,7.10
2018-10-18T06:23:23.220Z,7.08
2018-10-18T06:25:51.703Z,7.15
2018-10-18T06:28:20.306Z,7.50
2018-10-18T06:30:48.661Z,7.64
2018-10-18T06:33:17.172Z,7.83
2018-10-18T06:35:46.212Z,7.81
2018-10-18T06:38:14.676Z,7.67
2018-10-18T06:40:43.061Z,7.72
2018-10-18T06:43:11.698Z,7.73
2018-10-18T06:45:40.007Z,7.73
2018-10-18T06:48:08.433Z,7.82
2018-10-18T06:50:36.739Z,7.91
2018-10-18T06:53:05.202Z,8.09
2018-10-18T06:55:33.534Z,8.44
2018-10-18T06:58:01.858Z,8.69
2018-10-18T07:00:31.250Z,8.80
2018-10-18T07:02:59.608Z,8.96
2018-10-18T07:05:28.297Z,8.94
2018-10-18T07:07:57.120Z,9.08
2018-10-18T07:10:25.930Z,8.96
2018-10-18T07:12:54.542Z,9.28
2018-10-18T07:15:23.263Z,9.22
2018-10-18T07:17:51.762Z,9.27
2018-10-18T07:20:20.276Z,9.46
2018-10-18T07:22:49.422Z,9.68
2018-10-18T07:25:18.055Z,9.73
2018-10-18T07:27:46.508Z,9.81
2018-10-18T07:30:15.669Z,9.88
2018-10-18T07:32:43.997Z,9.87
2018-10-18T07:35:13.471Z,10.02
2018-10-18T07:37:41.658Z,9.79
2018-10-18T07:40:13.292Z,10.15
2018-10-18T07:42:42.008Z,9.95
2018-10-18T07:45:11.263Z,9.96
2018-10-18T07:47:39.747Z,10.23
2018-10-18T07:50:08.117Z,10.36
2018-10-18T07:52:36.710Z,10.38
2018-10-18T07:55:05.804Z,10.71
2018-10-18T07:57:34.220Z,10.78
2018-10-18T08:00:02.653Z,11.00
2018-10-18T08:02:30.983Z,11.23
2018-10-18T08:04:59.478Z,11.27
2018-10-18T08:07:28.370Z,11.26
2018-10-18T08:09:57.297Z,11.38
2018-10-18T08:12:25.763Z,11.65
2018-10-18T08:14:54.101Z,11.58
2018-10-18T08:17:22.537Z,11.81
2018-10-18T08:19:51.069Z,11.93
2018-10-18T08:22:19.469Z,12.00
2018-10-18T08:24:47.857Z,12.14
2018-10-18T08:27:16.361Z,12.23
2018-10-18T08:29:44.671Z,12.39
2018-10-18T08:32:13.007Z,12.28
2018-10-18T08:34:41.330Z,12.45
2018-10-18T08:37:09.918Z,12.63
2018-10-18T08:39:38.289Z,12.66
2018-10-18T08:42:06.870Z,12.78
2018-10-18T08:44:35.289Z,12.72
2018-10-18T08:47:03.687Z,12.83
2018-10-18T08:49:32.043Z,12.87
2018-10-18T08:52:00.377Z,12.98
2018-10-18T08:54:28.802Z,13.10
2018-10-18T08:56:57.184Z,13.13
2018-10-18T08:59:25.988Z,13.21
2018-10-18T09:01:54.360Z,13.15
2018-10-18T09:04:22.841Z,13.23
2018-10-18T09:06:51.215Z,13.48
2018-10-18T09:09:19.671Z,13.54
2018-10-18T09:11:48.415Z,13.67
2018-10-18T09:14:16.737Z,13.72
2018-10-18T09:16:45.243Z,13.74
2018-10-18T09:19:14.180Z,13.81
2018-10-18T09:21:42.660Z,13.78
2018-10-18T09:24:11.482Z,14.05
2018-10-18T09:26:40.052Z,14.25
2018-10-18T09:29:08.472Z,14.23
2018-10-18T09:31:36.951Z,14.23
2018-10-18T09:34:05.577Z,14.39
2018-10-18T09:36:33.951Z,14.47
2018-10-18T09:39:02.588Z,14.64
2018-10-18T09:41:31.069Z,14.63
2018-10-18T09:44:03.240Z,14.74
2018-10-18T09:46:32.477Z,14.91
2018-10-18T09:49:01.323Z,14.88
2018-10-18T09:51:29.747Z,14.97
2018-10-18T09:53:58.440Z,15.10
2018-10-18T09:56:26.868Z,15.06
2018-10-18T09:58:55.250Z,15.11
2018-10-18T10:01:30.433Z,15.11
2018-10-18T10:04:05.401Z,15.16
2018-10-18T10:06:33.781Z,15.28
2018-10-18T10:09:03.199Z,15.31
2018-10-18T10:11:32.424Z,15.28
2018-10-18T10:14:00.877Z,15.35
2018-10-18T10:16:29.295Z,15.49
2018-10-18T10:18:57.840Z,15.53
2018-10-18T10:21:26.224Z,15.73
2018-10-18T10:23:54.608Z,15.74
2018-10-18T10:26:23.288Z,15.67
2018-10-18T10:28:51.602Z,15.77
2018-10-18T10:31:20.232Z,15.93
2018-10-18T10:33:48.450Z,15.90
2018-10-18T10:36:16.838Z,15.93
2018-10-18T10:38:45.168Z,15.93
2018-10-18T10:41:13.595Z,15.50
2018-10-18T10:43:41.845Z,15.84
2018-10-18T10:46:10.224Z,15.85
2018-10-18T10:48:38.819Z,15.78
2018-10-18T10:51:07.229Z,15.57
2018-10-18T10:53:35.535Z,15.58
2018-10-18T10:56:03.942Z,15.62
2018-10-18T10:58:32.279Z,15.55
2018-10-18T11:01:08.795Z,15.29
2018-10-18T11:03:37.827Z,15.30
2018-10-18T11:06:06.228Z,15.10
2018-10-18T11:08:35.308Z,14.74
2018-10-18T11:11:03.872Z,14.51
2018-10-18T11:13:32.564Z,14.59
2018-10-18T11:16:02.681Z,13.98
2018-10-18T11:18:32.190Z,13.88
2018-10-18T11:21:01.108Z,13.94
2018-10-18T11:23:29.519Z,14.09
2018-10-18T11:25:58.029Z,13.81
2018-10-18T11:28:26.385Z,13.75
2018-10-18T11:30:54.790Z,13.79
2018-10-18T11:33:24.023Z,13.96
2018-10-18T11:35:52.405Z,13.96
2018-10-18T11:38:21.116Z,14.07
2018-10-18T11:40:49.660Z,14.04
2018-10-18T11:43:18.040Z,13.89
2018-10-18T11:45:46.427Z,14.33
2018-10-18T11:48:15.296Z,14.30
2018-10-18T11:50:44.172Z,14.27
2018-10-18T11:53:12.502Z,14.44
2018-10-18T11:55:40.995Z,14.37
2018-10-18T11:58:10.592Z,14.21
2018-10-18T12:00:38.979Z,14.36
2018-10-18T12:03:07.331Z,14.24
2018-10-18T12:05:35.812Z,14.40
2018-10-18T12:08:04.488Z,14.43
2018-10-18T12:10:33.006Z,14.51
2018-10-18T12:13:01.308Z,14.26
2018-10-18T12:15:29.769Z,14.04
2018-10-18T12:17:58.071Z,14.13
2018-10-18T12:20:26.422Z,14.38
2018-10-18T12:22:54.871Z,14.02
2018-10-18T12:25:23.479Z,14.16
2018-10-18T12:27:51.935Z,13.96
2018-10-18T12:30:20.471Z,14.00
2018-10-18T12:32:49.128Z,13.87
2018-10-18T12:35:17.627Z,13.80
2018-10-18T12:37:45.820Z,14.05
2018-10-18T12:40:14.256Z,14.05
2018-10-18T12:42:43.612Z,13.98
2018-10-18T12:45:12.731Z,14.07
2018-10-18T12:47:41.823Z,14.01
2018-10-18T12:50:10.241Z,14.10
2018-10-18T12:52:38.803Z,14.12
2018-10-18T12:55:07.352Z,14.14
2018-10-18T12:57:35.676Z,14.13
2018-10-18T13:00:04.055Z,14.10
2018-10-18T13:02:35.379Z,14.21
2018-10-18T13:05:03.712Z,14.23
2018-10-18T13:07:32.094Z,14.32
2018-10-18T13:10:00.423Z,14.33
2018-10-18T13:12:28.826Z,14.29
2018-10-18T13:14:57.098Z,14.29
2018-10-18T13:17:25.402Z,14.41
2018-10-18T13:19:54.391Z,14.35
2018-10-18T13:22:22.842Z,14.22
2018-10-18T13:24:51.127Z,14.15
2018-10-18T13:27:19.529Z,14.22
2018-10-18T13:29:47.829Z,14.17
2018-10-18T13:32:16.283Z,14.19
2018-10-18T13:34:44.654Z,14.21
2018-10-18T13:37:13.008Z,14.32
2018-10-18T13:39:41.423Z,14.28
2018-10-18T13:42:09.793Z,14.48
2018-10-18T13:44:38.105Z,14.43
2018-10-18T13:47:09.548Z,14.52
2018-10-18T13:49:37.890Z,14.58
2018-10-18T13:52:06.267Z,14.44
2018-10-18T13:54:34.927Z,14.44
2018-10-18T13:57:03.254Z,14.61
2018-10-18T13:59:42.913Z,14.48
2018-10-18T14:02:11.417Z,14.46
2018-10-18T14:04:42.483Z,14.40
2018-10-18T14:07:11.128Z,14.44
2018-10-18T14:09:39.695Z,14.40
2018-10-18T14:12:08.122Z,14.50
2018-10-18T14:14:36.430Z,14.39
2018-10-18T14:17:04.845Z,14.38
2018-10-18T14:19:33.130Z,14.35
2018-10-18T14:22:01.575Z,14.31
2018-10-18T14:24:30.013Z,14.29
2018-10-18T14:26:58.413Z,14.32
2018-10-18T14:29:26.835Z,14.31
2018-10-18T14:31:55.321Z,14.35
2018-10-18T14:34:24.897Z,14.25
2018-10-18T14:36:53.315Z,14.22
2018-10-18T14:39:21.739Z,14.23
2018-10-18T14:41:50.584Z,14.31
2018-10-18T14:44:19.002Z,14.25
2018-10-18T14:46:47.414Z,14.19
2018-10-18T14:49:16.011Z,14.20
2018-10-18T14:51:44.363Z,14.20
2018-10-18T14:54:12.876Z,14.16
2018-10-18T14:56:41.249Z,14.27
2018-10-18T14:59:09.624Z,14.29
2018-10-18T15:01:37.975Z,14.19
2018-10-18T15:04:06.876Z,14.19
2018-10-18T15:06:35.509Z,14.15
2018-10-18T15:09:03.923Z,14.11
2018-10-18T15:11:32.381Z,14.16
2018-10-18T15:14:00.749Z,14.15
2018-10-18T15:16:29.470Z,14.03
2018-10-18T15:18:57.843Z,14.07
2018-10-18T15:21:26.871Z,14.04
2018-10-18T15:23:55.299Z,13.98
2018-10-18T15:26:24.381Z,14.01
2018-10-18T15:28:52.884Z,13.99
2018-10-18T15:31:21.388Z,14.00
2018-10-18T15:33:50.693Z,14.00
2018-10-18T15:36:19.181Z,14.05
2018-10-18T15:38:47.907Z,13.99
2018-10-18T15:41:16.381Z,13.99
2018-10-18T15:43:44.686Z,13.96
2018-10-18T15:46:13.190Z,13.94
2018-10-18T15:48:41.668Z,13.99
2018-10-18T15:51:10.062Z,13.93
2018-10-18T15:53:38.597Z,13.91
2018-10-18T15:56:06.993Z,13.96
2018-10-18T15:58:35.618Z,13.97
2018-10-18T16:01:04.492Z,13.91
2018-10-18T16:03:32.994Z,13.86
2018-10-18T16:06:03.061Z,13.93
2018-10-18T16:08:31.427Z,14.02
2018-10-18T16:11:00.068Z,14.01
2018-10-18T16:13:36.967Z,14.03
2018-10-18T16:16:06.167Z,13.98
2018-10-18T16:18:34.646Z,14.08
2018-10-18T16:21:03.056Z,13.90
2018-10-18T16:23:31.467Z,13.90
2018-10-18T16:25:59.905Z,13.86
2018-10-18T16:28:29.246Z,13.86
2018-10-18T16:30:57.591Z,14.16
2018-10-18T16:33:26.124Z,13.97
2018-10-18T16:35:54.459Z,14.11
2018-10-18T16:38:22.813Z,14.03
2018-10-18T16:40:53.474Z,13.98
2018-10-18T16:43:22.446Z,14.03
2018-10-18T16:45:50.774Z,13.97
2018-10-18T16:48:19.142Z,14.05
2018-10-18T16:50:49.093Z,14.09
2018-10-18T16:53:17.422Z,14.10
2018-10-18T16:55:46.396Z,14.11
2018-10-18T16:58:14.851Z,14.10
2018-10-18T17:00:43.191Z,14.10
2018-10-18T17:03:11.975Z,14.11
2018-10-18T17:05:40.337Z,14.08
2018-10-18T17:08:08.973Z,14.12
2018-10-18T17:10:37.347Z,14.02
2018-10-18T17:13:06.318Z,14.14
2018-10-18T17:15:35.296Z,14.05
2018-10-18T17:18:04.075Z,14.02
2018-10-18T17:20:32.515Z,14.04
2018-10-18T17:23:00.938Z,13.95
2018-10-18T17:25:29.504Z,13.89
2018-10-18T17:27:58.116Z,13.92
2018-10-18T17:30:26.615Z,13.90
2018-10-18T17:32:54.974Z,13.83
2018-10-18T17:35:23.321Z,13.84
2018-10-18T17:37:52.240Z,13.87
2018-10-18T17:40:21.006Z,13.87
2018-10-18T17:42:49.775Z,13.78
2018-10-18T17:45:18.749Z,13.78
2018-10-18T17:47:48.426Z,13.67
2018-10-18T17:50:16.880Z,13.60
2018-10-18T17:52:45.188Z,13.65
2018-10-18T17:55:13.685Z,13.58
2018-10-18T17:57:42.104Z,13.58
2018-10-18T18:00:12.163Z,13.64
2018-10-18T18:02:42.724Z,13.69
2018-10-18T18:05:21.400Z,13.69
2018-10-18T18:07:49.806Z,13.71
2018-10-18T18:10:20.377Z,13.67
2018-10-18T18:12:48.711Z,13.68
2018-10-18T18:15:17.072Z,13.64
2018-10-18T18:17:45.469Z,13.67
2018-10-18T18:20:15.118Z,13.67
2018-10-18T18:22:46.623Z,13.63
2018-10-18T18:25:15.972Z,13.68
2018-10-18T18:27:44.455Z,13.63
2018-10-18T18:30:14.228Z,13.69
2018-10-18T18:32:42.903Z,13.66
2018-10-18T18:35:11.357Z,13.67
2018-10-18T18:37:39.690Z,13.54
2018-10-18T18:40:08.915Z,13.57
2018-10-18T18:42:37.639Z,13.61
2018-10-18T18:45:11.408Z,13.60
2018-10-18T18:47:39.691Z,13.64
2018-10-18T18:50:08.589Z,13.67
2018-10-18T18:52:36.876Z,13.56
2018-10-18T18:55:06.272Z,13.50
2018-10-18T18:57:36.899Z,13.58
2018-10-18T19:00:06.959Z,13.56
2018-10-18T19:02:35.862Z,13.48
2018-10-18T19:05:04.291Z,13.54
2018-10-18T19:07:33.403Z,13.46
2018-10-18T19:10:01.703Z,13.45
2018-10-18T19:12:30.305Z,13.46
2018-10-18T19:14:58.633Z,13.45
2018-10-18T19:17:27.031Z,13.49
2018-10-18T19:19:55.575Z,13.44
2018-10-18T19:22:23.994Z,13.33
2018-10-18T19:24:52.787Z,13.39
2018-10-18T19:27:22.603Z,13.44
2018-10-18T19:29:51.831Z,13.47
2018-10-18T19:32:20.235Z,13.39
2018-10-18T19:34:49.070Z,13.38
2018-10-18T19:37:17.631Z,13.29
2018-10-18T19:39:45.981Z,13.35
2018-10-18T19:42:14.307Z,13.31
2018-10-18T19:44:42.594Z,13.38
2018-10-18T19:47:10.911Z,13.33
2018-10-18T19:49:39.205Z,13.25
2018-10-18T19:52:07.734Z,13.35
2018-10-18T19:54:36.178Z,13.23
2018-10-18T19:57:04.635Z,13.26
2018-10-18T19:59:32.935Z,13.21
2018-10-18T20:02:01.310Z,13.21
2018-10-18T20:04:30.359Z,13.14
2018-10-18T20:06:58.788Z,13.22
2018-10-18T20:09:27.115Z,13.14
2018-10-18T20:11:55.570Z,13.12
2018-10-18T20:14:24.055Z,13.05
2018-10-18T20:16:52.535Z,13.10
2018-10-18T20:19:27.634Z,13.22
2018-10-18T20:21:56.023Z,13.17
2018-10-18T20:24:24.496Z,12.96
2018-10-18T20:26:53.165Z,13.05
2018-10-18T20:29:22.047Z,13.03
2018-10-18T20:31:50.631Z,13.00
2018-10-18T20:34:18.943Z,12.99
2018-10-18T20:36:47.898Z,13.08
2018-10-18T20:39:16.248Z,13.01
2018-10-18T20:41:44.995Z,12.94
2018-10-18T20:44:13.371Z,12.97
2018-10-18T20:46:41.858Z,13.16
2018-10-18T20:49:10.564Z,12.99
2018-10-18T20:51:42.390Z,12.94
2018-10-18T20:54:11.403Z,13.07
2018-10-18T20:56:39.956Z,13.05
2018-10-18T20:59:08.411Z,13.13
2018-10-18T21:01:36.724Z,13.06
2018-10-18T21:04:08.386Z,13.11
2018-10-18T21:06:37.037Z,13.07
2018-10-18T21:09:07.714Z,13.07
2018-10-18T21:11:36.121Z,13.13
2018-10-18T21:14:04.773Z,13.07
2018-10-18T21:16:33.471Z,13.11
2018-10-18T21:19:01.787Z,13.09
2018-10-18T21:21:30.286Z,13.00
2018-10-18T21:23:58.767Z,13.13
2018-10-18T21:26:27.124Z,13.08
2018-10-18T21:28:55.646Z,13.00
2018-10-18T21:31:24.212Z,13.04
2018-10-18T21:33:52.935Z,13.03
2018-10-18T21:36:21.248Z,12.89
2018-10-18T21:38:50.241Z,12.85
2018-10-18T21:41:18.575Z,12.78
2018-10-18T21:43:46.878Z,12.80
2018-10-18T21:46:15.238Z,12.73
2018-10-18T21:48:44.129Z,12.81
2018-10-18T21:51:12.633Z,12.77
2018-10-18T21:53:40.818Z,12.80
2018-10-18T21:56:09.248Z,12.77
2018-10-18T21:58:37.527Z,12.71
2018-10-18T22:01:06.055Z,12.69
2018-10-18T22:03:35.564Z,12.72
2018-10-18T22:06:03.880Z,12.69
2018-10-18T22:08:32.184Z,12.63
2018-10-18T22:11:01.002Z,12.74
2018-10-18T22:13:29.357Z,12.67
2018-10-18T22:15:57.670Z,12.70
2018-10-18T22:18:25.954Z,12.63
2018-10-18T22:20:54.481Z,12.55
2018-10-18T22:23:23.461Z,12.63
2018-10-18T22:25:51.806Z,12.51
2018-10-18T22:28:21.210Z,12.39
2018-10-18T22:30:49.813Z,12.58
2018-10-18T22:33:20.709Z,12.57
2018-10-18T22:35:51.644Z,12.45
2018-10-18T22:38:21.197Z,12.47
2018-10-18T22:40:49.580Z,12.41
2018-10-18T22:43:18.147Z,12.38
2018-10-18T22:45:51.926Z,12.37
2018-10-18T22:48:20.454Z,12.23
2018-10-18T22:50:50.599Z,12.30
2018-10-18T22:53:20.701Z,12.38
2018-10-18T22:55:51.745Z,12.23
2018-10-18T22:58:21.664Z,12.19
2018-10-18T23:00:54.285Z,12.25
2018-10-18T23:03:24.827Z,12.17
2018-10-18T23:05:55.458Z,12.23
2018-10-18T23:08:25.238Z,12.20
2018-10-18T23:10:54.101Z,12.25
2018-10-18T23:13:22.437Z,12.18
2018-10-18T23:15:51.140Z,12.13
2018-10-18T23:18:19.471Z,12.21
2018-10-18T23:20:48.044Z,12.17
2018-10-18T23:23:16.521Z,12.11
2018-10-18T23:25:45.024Z,12.06
2018-10-18T23:28:13.934Z,12.02
2018-10-18T23:30:43.198Z,11.99
2018-10-18T23:33:11.577Z,11.99
2018-10-18T23:35:40.270Z,11.82
2018-10-18T23:38:08.563Z,11.82
2018-10-18T23:40:36.875Z,11.74
2018-10-18T23:43:05.387Z,11.70
2018-10-18T23:45:33.746Z,11.71
2018-10-18T23:48:02.058Z,11.64
2018-10-18T23:50:30.374Z,11.61
2018-10-18T23:52:58.680Z,11.57
2018-10-18T23:55:27.150Z,11.50
2018-10-18T23:57:55.431Z,11.40
